createdAt,value
2023-08-25T00:00:57.943Z,67.01
2023-08-25T00:01:59.760Z,67.26
2023-08-25T00:03:01.745Z,67.45
2023-08-25T00:04:03.714Z,67.60
2023-08-25T00:05:05.904Z,67.80
2023-08-25T00:06:07.672Z,67.93
2023-08-25T00:07:09.712Z,68.09
2023-08-25T00:08:11.464Z,67.73
2023-08-25T00:09:14.164Z,67.76
2023-08-25T00:10:15.982Z,68.61
2023-08-25T00:11:17.730Z,69.09
2023-08-25T00:12:19.488Z,69.28
2023-08-25T00:13:21.892Z,68.67
2023-08-25T00:14:23.643Z,68.33
2023-08-25T00:15:25.445Z,69.15
2023-08-25T00:16:27.161Z,69.03
2023-08-25T00:17:28.914Z,68.50
2023-08-25T00:18:30.746Z,68.29
2023-08-25T00:19:32.544Z,68.67
2023-08-25T00:20:34.379Z,68.39
2023-08-25T00:21:36.166Z,68.45
2023-08-25T00:22:38.499Z,69.02
2023-08-25T00:23:40.242Z,68.28
2023-08-25T00:24:41.966Z,69.01
2023-08-25T00:25:46.171Z,68.51
2023-08-25T00:26:48.219Z,68.75
2023-08-25T00:27:50.135Z,68.45
2023-08-25T00:28:51.858Z,68.58
2023-08-25T00:29:54.379Z,68.16
2023-08-25T00:30:56.267Z,67.97
2023-08-25T00:31:58.106Z,68.13
2023-08-25T00:32:59.874Z,67.47
2023-08-25T00:34:03.758Z,67.71
2023-08-25T00:35:06.470Z,68.16
2023-08-25T00:36:08.320Z,68.12
2023-08-25T00:37:10.096Z,67.04
2023-08-25T00:38:12.772Z,66.31
2023-08-25T00:39:14.522Z,66.65
2023-08-25T00:40:16.312Z,67.10
2023-08-25T00:41:18.046Z,67.73
2023-08-25T00:42:19.778Z,67.65
2023-08-25T00:43:21.572Z,67.69
2023-08-25T00:44:23.276Z,67.61
2023-08-25T00:45:25.081Z,67.69
2023-08-25T00:46:27.073Z,66.88
2023-08-25T00:47:29.318Z,67.60
2023-08-25T00:48:31.465Z,67.84
2023-08-25T00:49:34.194Z,67.58
2023-08-25T00:50:36.473Z,67.93
2023-08-25T00:51:38.573Z,67.40
2023-08-25T00:52:41.794Z,66.62
2023-08-25T00:53:45.257Z,66.74
2023-08-25T00:54:49.702Z,67.52
2023-08-25T00:55:54.103Z,67.97
2023-08-25T00:56:56.564Z,68.45
2023-08-25T00:57:59.082Z,68.30
2023-08-25T00:59:01.156Z,67.59
2023-08-25T01:00:03.585Z,67.87
2023-08-25T01:01:05.771Z,68.36
2023-08-25T01:02:09.270Z,68.40
2023-08-25T01:03:11.567Z,68.89
2023-08-25T01:04:14.213Z,66.72
2023-08-25T01:05:17.760Z,66.96
2023-08-25T01:06:19.677Z,67.63
2023-08-25T01:07:21.441Z,68.11
2023-08-25T01:08:23.552Z,68.45
2023-08-25T01:09:26.554Z,67.98
2023-08-25T01:10:37.365Z,69.00
2023-08-25T01:11:45.729Z,68.70
2023-08-25T01:13:09.237Z,67.84
2023-08-25T01:14:23.529Z,68.12
2023-08-25T01:15:33.354Z,68.54
2023-08-25T01:16:41.050Z,68.65
2023-08-25T01:17:58.020Z,69.17
2023-08-25T01:19:05.081Z,69.19
2023-08-25T01:20:09.679Z,69.77
2023-08-25T01:21:12.511Z,69.64
2023-08-25T01:22:18.526Z,69.64
2023-08-25T01:23:20.202Z,69.40
2023-08-25T01:24:29.299Z,69.52
2023-08-25T01:25:32.167Z,69.64
2023-08-25T01:26:33.981Z,70.20
2023-08-25T01:27:36.147Z,69.78
2023-08-25T01:28:44.274Z,69.62
2023-08-25T01:29:46.074Z,69.81
2023-08-25T01:30:51.470Z,69.92
2023-08-25T01:31:53.222Z,70.35
2023-08-25T01:32:55.583Z,70.07
2023-08-25T01:33:57.620Z,69.84
2023-08-25T01:34:59.533Z,70.28
2023-08-25T01:36:15.347Z,70.48
2023-08-25T01:37:29.696Z,70.52
2023-08-25T01:38:31.366Z,69.43
2023-08-25T01:39:36.668Z,70.05
2023-08-25T01:40:45.988Z,69.94
2023-08-25T01:41:50.681Z,69.85
2023-08-25T01:42:57.753Z,69.41
2023-08-25T01:44:06.079Z,69.96
2023-08-25T01:45:08.415Z,69.45
2023-08-25T01:46:12.191Z,69.80
2023-08-25T01:47:18.084Z,69.96
2023-08-25T01:48:20.933Z,69.77
2023-08-25T01:49:23.558Z,69.78
2023-08-25T01:50:25.483Z,69.11
2023-08-25T01:51:29.866Z,68.60
2023-08-25T01:52:32.484Z,68.39
2023-08-25T01:53:34.261Z,68.78
2023-08-25T01:54:36.755Z,69.35
2023-08-25T01:55:39.037Z,69.55
2023-08-25T01:56:40.945Z,69.67
2023-08-25T01:57:42.689Z,69.33
2023-08-25T01:58:44.433Z,69.38
2023-08-25T01:59:46.244Z,70.40
2023-08-25T02:00:47.984Z,69.74
2023-08-25T02:01:50.105Z,69.81
2023-08-25T02:02:52.024Z,70.04
2023-08-25T02:03:54.161Z,70.33
2023-08-25T02:04:56.043Z,70.28
2023-08-25T02:05:58.177Z,70.27
2023-08-25T02:07:00.379Z,70.46
2023-08-25T02:08:02.100Z,70.75
2023-08-25T02:09:04.354Z,71.40
2023-08-25T02:10:06.572Z,71.35
2023-08-25T02:11:08.592Z,71.23
2023-08-25T02:12:10.358Z,71.35
2023-08-25T02:13:12.145Z,71.38
2023-08-25T02:14:13.917Z,70.70
2023-08-25T02:15:15.827Z,70.94
2023-08-25T02:16:17.619Z,71.27
2023-08-25T02:17:19.365Z,70.60
2023-08-25T02:18:21.129Z,70.64
2023-08-25T02:19:23.018Z,71.09
2023-08-25T02:20:27.138Z,71.50
2023-08-25T02:21:28.942Z,71.81
2023-08-25T02:22:30.694Z,71.79
2023-08-25T02:23:32.449Z,71.94
2023-08-25T02:24:34.426Z,71.87
2023-08-25T02:25:36.177Z,69.32
2023-08-25T02:26:37.918Z,71.18
2023-08-25T02:27:39.623Z,70.86
2023-08-25T02:28:41.390Z,71.24
2023-08-25T02:29:43.236Z,71.67
2023-08-25T02:30:45.054Z,72.35
2023-08-25T02:31:46.915Z,71.49
2023-08-25T02:32:48.780Z,72.12
2023-08-25T02:33:50.514Z,72.41
2023-08-25T02:34:52.369Z,72.24
2023-08-25T02:35:54.152Z,71.69
2023-08-25T02:36:55.948Z,72.74
2023-08-25T02:38:01.702Z,73.02
2023-08-25T02:39:04.522Z,72.69
2023-08-25T02:40:07.003Z,72.83
2023-08-25T02:41:08.775Z,72.21
2023-08-25T02:42:10.490Z,72.39
2023-08-25T02:43:12.504Z,71.83
2023-08-25T02:44:14.236Z,71.77
2023-08-25T02:45:16.056Z,71.63
2023-08-25T02:46:17.824Z,71.85
2023-08-25T02:47:19.675Z,72.04
2023-08-25T02:48:21.392Z,71.78
2023-08-25T02:49:23.271Z,71.58
2023-08-25T02:50:25.741Z,71.96
2023-08-25T02:51:27.493Z,72.19
2023-08-25T02:52:29.376Z,72.56
2023-08-25T02:53:31.099Z,72.49
2023-08-25T02:54:35.523Z,72.97
2023-08-25T02:55:39.079Z,73.54
2023-08-25T02:56:40.816Z,73.41
2023-08-25T02:57:42.573Z,73.60
2023-08-25T02:58:44.311Z,73.14
2023-08-25T02:59:46.070Z,73.68
2023-08-25T03:00:47.870Z,73.43
2023-08-25T03:01:49.710Z,73.50
2023-08-25T03:02:54.024Z,73.41
2023-08-25T03:03:56.883Z,73.53
2023-08-25T03:04:58.678Z,73.63
2023-08-25T03:06:00.790Z,73.90
2023-08-25T03:07:02.551Z,73.99
2023-08-25T03:08:06.041Z,73.80
2023-08-25T03:09:08.079Z,73.68
2023-08-25T03:10:10.448Z,73.69
2023-08-25T03:11:12.208Z,74.10
2023-08-25T03:12:13.952Z,74.04
2023-08-25T03:13:17.633Z,73.91
2023-08-25T03:14:27.844Z,73.75
2023-08-25T03:15:29.596Z,73.91
2023-08-25T03:16:31.337Z,72.59
2023-08-25T03:17:33.264Z,73.40
2023-08-25T03:18:35.371Z,71.72
2023-08-25T03:19:38.772Z,72.88
2023-08-25T03:20:40.562Z,73.33
2023-08-25T03:21:42.489Z,72.84
2023-08-25T03:22:44.246Z,72.67
2023-08-25T03:23:46.074Z,73.45
2023-08-25T03:24:47.985Z,73.89
2023-08-25T03:25:49.864Z,73.86
2023-08-25T03:26:51.583Z,72.92
2023-08-25T03:27:53.573Z,73.17
2023-08-25T03:28:55.585Z,73.73
2023-08-25T03:29:57.394Z,73.83
2023-08-25T03:30:59.424Z,73.93
2023-08-25T03:32:01.633Z,73.89
2023-08-25T03:33:04.705Z,73.76
2023-08-25T03:34:06.575Z,73.23
2023-08-25T03:35:09.551Z,73.03
2023-08-25T03:36:11.290Z,73.90
2023-08-25T03:37:13.043Z,74.56
2023-08-25T03:38:14.811Z,74.78
2023-08-25T03:39:18.964Z,74.95
2023-08-25T03:40:20.730Z,74.49
2023-08-25T03:41:22.463Z,74.41
2023-08-25T03:42:24.170Z,75.37
2023-08-25T03:43:25.921Z,75.54
2023-08-25T03:44:27.749Z,75.53
2023-08-25T03:45:29.491Z,75.92
2023-08-25T03:46:33.300Z,76.06
2023-08-25T03:47:35.170Z,76.50
2023-08-25T03:48:36.921Z,76.03
2023-08-25T03:49:38.662Z,76.24
2023-08-25T03:50:40.477Z,76.50
2023-08-25T03:51:42.313Z,76.33
2023-08-25T03:52:45.391Z,76.49
2023-08-25T03:53:47.159Z,76.38
2023-08-25T03:54:48.923Z,76.71
2023-08-25T03:55:50.667Z,77.16
2023-08-25T03:56:52.427Z,77.35
2023-08-25T03:57:54.377Z,77.74
2023-08-25T03:58:56.408Z,77.86
2023-08-25T03:59:58.188Z,77.99
2023-08-25T04:01:00.601Z,78.32
2023-08-25T04:02:03.794Z,78.31
2023-08-25T04:03:07.872Z,78.42
2023-08-25T04:04:09.775Z,77.13
2023-08-25T04:05:11.556Z,75.94
2023-08-25T04:06:13.330Z,75.36
2023-08-25T04:07:15.148Z,74.38
2023-08-25T04:08:16.981Z,74.50
2023-08-25T04:09:18.688Z,74.64
2023-08-25T04:10:20.550Z,74.57
2023-08-25T04:11:22.389Z,74.70
2023-08-25T04:12:24.124Z,74.43
2023-08-25T04:13:26.696Z,74.45
2023-08-25T04:14:28.428Z,75.29
2023-08-25T04:15:30.329Z,75.26
2023-08-25T04:16:32.128Z,75.02
2023-08-25T04:17:36.679Z,74.50
2023-08-25T04:18:38.483Z,73.06
2023-08-25T04:19:40.384Z,71.85
2023-08-25T04:20:42.183Z,71.09
2023-08-25T04:21:46.767Z,70.47
2023-08-25T04:22:48.560Z,69.99
2023-08-25T04:23:50.282Z,70.82
2023-08-25T04:24:52.100Z,70.47
2023-08-25T04:25:53.877Z,71.72
2023-08-25T04:26:55.720Z,72.16
2023-08-25T04:27:59.317Z,72.13
2023-08-25T04:29:01.083Z,71.65
2023-08-25T04:30:02.932Z,71.74
2023-08-25T04:31:04.713Z,71.51
2023-08-25T04:32:06.510Z,69.84
2023-08-25T04:33:08.314Z,70.44
2023-08-25T04:34:10.060Z,70.60
2023-08-25T04:35:11.807Z,69.75
2023-08-25T04:36:15.010Z,69.13
2023-08-25T04:37:17.325Z,69.65
2023-08-25T04:38:19.222Z,68.73
2023-08-25T04:39:20.939Z,68.44
2023-08-25T04:40:23.303Z,67.55
2023-08-25T04:41:25.064Z,67.58
2023-08-25T04:42:27.771Z,66.70
2023-08-25T04:43:29.493Z,66.59
2023-08-25T04:44:31.228Z,65.51
2023-08-25T04:45:33.010Z,64.74
2023-08-25T04:46:34.826Z,63.88
2023-08-25T04:47:36.847Z,63.32
2023-08-25T04:48:40.797Z,63.32
2023-08-25T04:49:44.377Z,61.27
2023-08-25T04:50:46.185Z,60.95
2023-08-25T04:51:47.948Z,60.03
2023-08-25T04:52:49.782Z,59.83
2023-08-25T04:53:51.596Z,58.50
2023-08-25T04:54:53.339Z,58.66
2023-08-25T04:55:55.254Z,58.38
2023-08-25T04:56:57.007Z,58.09
2023-08-25T04:57:58.873Z,57.72
2023-08-25T04:59:00.615Z,56.70
2023-08-25T05:00:06.764Z,56.40
2023-08-25T05:01:08.580Z,55.45
2023-08-25T05:02:10.411Z,56.24
2023-08-25T05:03:12.212Z,56.15
2023-08-25T05:04:13.984Z,55.89
2023-08-25T05:05:18.181Z,56.56
2023-08-25T05:06:19.951Z,55.68
2023-08-25T05:07:21.677Z,54.06
2023-08-25T05:08:23.537Z,54.38
2023-08-25T05:09:25.280Z,53.02
2023-08-25T05:10:27.017Z,53.37
2023-08-25T05:11:28.782Z,50.49
2023-08-25T05:12:31.145Z,48.87
2023-08-25T05:13:32.913Z,50.72
2023-08-25T05:14:34.711Z,49.70
2023-08-25T05:15:36.514Z,47.53
2023-08-25T05:16:38.376Z,48.57
2023-08-25T05:17:40.265Z,47.72
2023-08-25T05:18:42.227Z,48.57
2023-08-25T05:19:44.228Z,49.13
2023-08-25T05:20:46.002Z,48.45
2023-08-25T05:21:47.900Z,47.19
2023-08-25T05:22:52.086Z,46.56
2023-08-25T05:24:16.356Z,46.40
2023-08-25T05:25:24.550Z,46.39
2023-08-25T05:26:26.278Z,45.09
2023-08-25T05:27:28.141Z,45.75
2023-08-25T05:28:30.037Z,46.29
2023-08-25T05:29:31.812Z,44.73
2023-08-25T05:30:33.619Z,46.23
2023-08-25T05:31:35.443Z,44.92
2023-08-25T05:32:37.341Z,45.03
2023-08-25T05:33:39.673Z,44.55
2023-08-25T05:34:41.407Z,45.94
2023-08-25T05:35:43.364Z,44.39
2023-08-25T05:36:45.685Z,44.76
2023-08-25T05:37:47.413Z,44.31
2023-08-25T05:38:49.144Z,44.05
2023-08-25T05:39:50.953Z,42.39
2023-08-25T05:40:52.731Z,42.72
2023-08-25T05:41:54.562Z,43.37
2023-08-25T05:42:56.318Z,42.70
2023-08-25T05:43:58.209Z,43.42
2023-08-25T05:44:59.964Z,41.68
2023-08-25T05:46:01.756Z,42.64
2023-08-25T05:47:04.767Z,40.91
2023-08-25T05:48:06.934Z,40.98
2023-08-25T05:49:08.789Z,41.35
2023-08-25T05:50:11.045Z,40.64
2023-08-25T05:51:12.778Z,41.64
2023-08-25T05:52:14.571Z,41.01
2023-08-25T05:53:16.410Z,40.54
2023-08-25T05:54:18.137Z,40.98
2023-08-25T05:55:20.319Z,39.76
2023-08-25T05:56:22.415Z,40.46
2023-08-25T05:57:25.094Z,39.00
2023-08-25T05:58:26.817Z,40.09
2023-08-25T05:59:28.671Z,40.38
2023-08-25T06:00:30.512Z,39.65
2023-08-25T06:01:33.673Z,40.86
2023-08-25T06:02:35.629Z,40.37
2023-08-25T06:03:37.432Z,40.88
2023-08-25T06:04:39.223Z,40.85
2023-08-25T06:05:44.034Z,39.74
2023-08-25T06:06:45.786Z,39.04
2023-08-25T06:07:47.503Z,38.97
2023-08-25T06:08:49.302Z,39.69
2023-08-25T06:09:51.064Z,37.13
2023-08-25T06:10:55.598Z,37.93
2023-08-25T06:11:57.382Z,37.08
2023-08-25T06:12:59.114Z,37.62
2023-08-25T06:14:00.844Z,38.64
2023-08-25T06:15:02.635Z,38.25
2023-08-25T06:16:04.837Z,37.25
2023-08-25T06:17:06.846Z,36.90
2023-08-25T06:18:08.662Z,37.08
2023-08-25T06:19:10.446Z,37.84
2023-08-25T06:20:13.360Z,36.87
2023-08-25T06:21:15.165Z,37.51
2023-08-25T06:22:16.899Z,37.55
2023-08-25T06:23:19.106Z,37.29
2023-08-25T06:24:20.823Z,37.10
2023-08-25T06:25:22.564Z,35.08
2023-08-25T06:26:24.325Z,36.52
2023-08-25T06:27:26.403Z,36.55
2023-08-25T06:28:30.324Z,35.12
2023-08-25T06:29:32.043Z,34.65
2023-08-25T06:30:37.268Z,34.71
2023-08-25T06:31:39.101Z,35.90
2023-08-25T06:32:40.960Z,35.45
2023-08-25T06:33:43.010Z,36.16
2023-08-25T06:34:49.678Z,35.62
2023-08-25T06:35:51.427Z,36.56
2023-08-25T06:36:53.164Z,37.20
2023-08-25T06:37:55.219Z,36.23
2023-08-25T06:38:57.868Z,36.18
2023-08-25T06:39:59.734Z,37.23
2023-08-25T06:41:01.577Z,37.57
2023-08-25T06:42:03.395Z,36.43
2023-08-25T06:43:05.342Z,36.16
2023-08-25T06:44:07.056Z,36.70
2023-08-25T06:45:09.063Z,36.82
2023-08-25T06:46:10.798Z,38.45
2023-08-25T06:47:12.567Z,36.47
2023-08-25T06:48:14.502Z,38.03
2023-08-25T06:49:16.317Z,37.42
2023-08-25T06:50:18.239Z,37.39
2023-08-25T06:51:19.972Z,37.69
2023-08-25T06:52:22.435Z,36.49
2023-08-25T06:53:25.443Z,37.93
2023-08-25T06:54:27.970Z,35.86
2023-08-25T06:55:29.808Z,35.69
2023-08-25T06:56:31.612Z,36.17
2023-08-25T06:57:35.667Z,35.97
2023-08-25T06:58:38.226Z,36.38
2023-08-25T06:59:40.123Z,35.49
2023-08-25T07:00:41.839Z,34.91
2023-08-25T07:01:45.088Z,34.15
2023-08-25T07:02:47.191Z,37.47
2023-08-25T07:03:49.443Z,35.93
2023-08-25T07:04:51.215Z,35.57
2023-08-25T07:05:58.737Z,35.91
2023-08-25T07:07:01.286Z,35.03
2023-08-25T07:08:03.672Z,34.99
2023-08-25T07:09:05.399Z,34.38
2023-08-25T07:10:07.790Z,35.59
2023-08-25T07:11:09.550Z,35.14
2023-08-25T07:12:11.433Z,33.95
2023-08-25T07:13:13.221Z,35.12
2023-08-25T07:14:15.247Z,36.10
2023-08-25T07:15:17.107Z,33.24
2023-08-25T07:16:19.132Z,35.99
2023-08-25T07:17:20.924Z,33.51
2023-08-25T07:18:25.841Z,33.33
2023-08-25T07:19:27.626Z,34.70
2023-08-25T07:20:29.732Z,34.18
2023-08-25T07:21:31.539Z,32.06
2023-08-25T07:22:33.798Z,32.08
2023-08-25T07:23:35.573Z,32.09
2023-08-25T07:24:37.341Z,30.59
2023-08-25T07:25:44.711Z,30.71
2023-08-25T07:26:46.742Z,31.27
2023-08-25T07:27:48.673Z,32.03
2023-08-25T07:28:50.994Z,32.00
2023-08-25T07:29:55.402Z,32.93
2023-08-25T07:30:58.148Z,30.25
2023-08-25T07:31:59.966Z,32.36
2023-08-25T07:33:01.773Z,31.07
2023-08-25T07:34:04.283Z,31.00
2023-08-25T07:35:06.523Z,29.88
2023-08-25T07:36:08.330Z,29.40
2023-08-25T07:37:10.277Z,31.43
2023-08-25T07:38:12.486Z,30.42
2023-08-25T07:39:14.428Z,30.30
2023-08-25T07:40:16.186Z,29.24
2023-08-25T07:41:23.819Z,29.75
2023-08-25T07:42:25.678Z,28.90
2023-08-25T07:43:27.535Z,30.40
2023-08-25T07:44:29.283Z,30.15
2023-08-25T07:45:32.439Z,30.58
2023-08-25T07:46:39.048Z,29.65
2023-08-25T07:47:40.932Z,29.81
2023-08-25T07:48:42.874Z,32.04
2023-08-25T07:49:44.847Z,29.50
2023-08-25T07:50:46.652Z,31.78
2023-08-25T07:51:48.395Z,32.71
2023-08-25T07:52:50.139Z,32.01
2023-08-25T07:53:51.897Z,29.56
2023-08-25T07:54:53.638Z,31.71
2023-08-25T07:55:59.160Z,29.69
2023-08-25T07:57:01.022Z,30.08
2023-08-25T07:58:03.815Z,29.91
2023-08-25T07:59:06.927Z,29.18
2023-08-25T08:00:13.486Z,29.49
2023-08-25T08:01:15.897Z,28.85
2023-08-25T08:02:17.666Z,28.40
2023-08-25T08:03:20.473Z,28.90
2023-08-25T08:04:22.323Z,29.40
2023-08-25T08:05:24.054Z,27.20
2023-08-25T08:06:25.961Z,28.33
2023-08-25T08:07:27.884Z,27.80
2023-08-25T08:08:29.606Z,27.95
2023-08-25T08:09:33.040Z,29.55
2023-08-25T08:10:34.825Z,28.65
2023-08-25T08:11:36.789Z,28.36
2023-08-25T08:12:40.318Z,27.49
2023-08-25T08:13:42.102Z,28.58
2023-08-25T08:14:46.411Z,29.39
2023-08-25T08:15:48.621Z,28.06
2023-08-25T08:16:50.442Z,27.83
2023-08-25T08:17:52.593Z,28.37
2023-08-25T08:18:55.111Z,28.15
2023-08-25T08:19:56.855Z,26.78
2023-08-25T08:20:58.563Z,26.89
2023-08-25T08:22:00.378Z,26.87
2023-08-25T08:23:02.176Z,26.62
2023-08-25T08:24:05.005Z,25.16
2023-08-25T08:25:10.320Z,26.87
2023-08-25T08:26:12.525Z,24.50
2023-08-25T08:27:16.688Z,25.65
2023-08-25T08:28:18.503Z,27.36
2023-08-25T08:29:20.234Z,27.11
2023-08-25T08:30:22.186Z,26.79
2023-08-25T08:31:24.115Z,27.50
2023-08-25T08:32:25.916Z,27.54
2023-08-25T08:33:27.770Z,27.58
2023-08-25T08:34:29.499Z,26.04
2023-08-25T08:35:33.453Z,27.76
2023-08-25T08:36:35.863Z,27.61
2023-08-25T08:37:38.046Z,27.45
2023-08-25T08:38:39.800Z,26.93
2023-08-25T08:39:41.646Z,26.98
2023-08-25T08:40:43.627Z,26.43
2023-08-25T08:41:48.605Z,25.81
2023-08-25T08:42:53.797Z,27.23
2023-08-25T08:43:58.170Z,27.69
2023-08-25T08:45:05.329Z,25.88
2023-08-25T08:46:08.393Z,26.55
2023-08-25T08:47:10.956Z,26.68
2023-08-25T08:48:15.079Z,26.23
2023-08-25T08:49:16.917Z,25.88
2023-08-25T08:50:19.437Z,26.30
2023-08-25T08:51:23.237Z,26.07
2023-08-25T08:52:25.382Z,26.58
2023-08-25T08:53:28.237Z,27.31
2023-08-25T08:54:32.065Z,27.13
2023-08-25T08:55:34.568Z,26.51
2023-08-25T08:56:36.586Z,25.75
2023-08-25T08:57:38.375Z,26.42
2023-08-25T08:58:40.196Z,25.80
2023-08-25T08:59:43.554Z,25.64
2023-08-25T09:00:45.482Z,24.39
2023-08-25T09:01:49.606Z,24.87
2023-08-25T09:02:54.855Z,26.68
2023-08-25T09:03:59.414Z,26.23
2023-08-25T09:05:02.216Z,28.25
2023-08-25T09:06:04.703Z,25.30
2023-08-25T09:07:08.167Z,25.35
2023-08-25T09:08:11.074Z,26.55
2023-08-25T09:09:15.816Z,25.80
2023-08-25T09:10:17.666Z,25.70
2023-08-25T09:11:19.436Z,25.77
2023-08-25T09:12:26.437Z,25.35
2023-08-25T09:13:28.239Z,27.48
2023-08-25T09:14:30.868Z,25.92
2023-08-25T09:15:35.303Z,25.66
2023-08-25T09:16:37.711Z,25.43
2023-08-25T09:17:39.875Z,25.13
2023-08-25T09:18:42.009Z,26.55
2023-08-25T09:19:43.836Z,26.19
2023-08-25T09:20:45.690Z,25.87
2023-08-25T09:21:47.996Z,26.68
2023-08-25T09:22:57.157Z,25.80
2023-08-25T09:24:01.778Z,24.42
2023-08-25T09:25:03.600Z,25.05
2023-08-25T09:26:05.516Z,25.11
2023-08-25T09:27:07.444Z,24.71
2023-08-25T09:28:10.743Z,26.13
2023-08-25T09:29:12.707Z,24.49
2023-08-25T09:30:15.775Z,24.99
2023-08-25T09:31:29.520Z,24.30
2023-08-25T09:32:32.212Z,26.29
2023-08-25T09:33:35.348Z,24.62
2023-08-25T09:34:37.155Z,24.95
2023-08-25T09:35:38.990Z,25.07
2023-08-25T09:36:57.174Z,24.81
2023-08-25T09:37:58.983Z,24.92
2023-08-25T09:39:06.214Z,24.29
2023-08-25T09:40:13.934Z,26.53
2023-08-25T09:41:27.146Z,26.90
2023-08-25T09:42:29.618Z,23.96
2023-08-25T09:43:34.431Z,25.88
2023-08-25T09:44:36.188Z,24.42
2023-08-25T09:45:39.920Z,24.50
2023-08-25T09:46:41.679Z,23.81
2023-08-25T09:47:43.727Z,25.34
2023-08-25T09:48:46.556Z,23.95
2023-08-25T09:49:48.492Z,24.09
2023-08-25T09:50:50.983Z,24.66
2023-08-25T09:51:55.596Z,23.98
2023-08-25T09:52:57.595Z,25.78
2023-08-25T09:54:00.034Z,24.62
2023-08-25T09:55:01.900Z,24.73
2023-08-25T09:56:08.243Z,25.18
2023-08-25T09:57:10.581Z,24.70
2023-08-25T09:58:15.319Z,23.99
2023-08-25T09:59:17.419Z,25.29
2023-08-25T10:00:20.693Z,24.29
2023-08-25T10:01:23.103Z,24.92
2023-08-25T10:02:26.276Z,25.57
2023-08-25T10:03:28.602Z,24.13
2023-08-25T10:04:30.422Z,23.43
2023-08-25T10:05:36.085Z,23.66
2023-08-25T10:06:39.592Z,25.50
2023-08-25T10:07:44.129Z,25.02
2023-08-25T10:08:47.569Z,23.08
2023-08-25T10:09:50.136Z,23.36
2023-08-25T10:10:51.924Z,23.91
2023-08-25T10:11:56.697Z,22.34
2023-08-25T10:12:59.795Z,22.40
2023-08-25T10:14:04.128Z,22.20
2023-08-25T10:15:09.371Z,22.47
2023-08-25T10:16:13.357Z,21.85
2023-08-25T10:17:16.792Z,22.69
2023-08-25T10:18:19.040Z,22.44
2023-08-25T10:19:24.854Z,21.91
2023-08-25T10:20:27.704Z,21.14
2023-08-25T10:21:32.101Z,22.21
2023-08-25T10:22:35.886Z,22.46
2023-08-25T10:23:39.325Z,23.27
2023-08-25T10:24:42.560Z,22.40
2023-08-25T10:25:45.001Z,22.65
2023-08-25T10:26:48.217Z,22.61
2023-08-25T10:27:50.560Z,22.89
2023-08-25T10:28:53.559Z,22.49
2023-08-25T10:29:56.029Z,22.90
2023-08-25T10:30:57.907Z,22.44
2023-08-25T10:32:01.644Z,21.24
2023-08-25T10:33:10.324Z,23.23
2023-08-25T10:34:30.445Z,22.60
2023-08-25T10:35:46.750Z,22.40
2023-08-25T10:36:49.278Z,23.83
2023-08-25T10:37:54.165Z,22.21
2023-08-25T10:38:56.108Z,21.92
2023-08-25T10:40:00.922Z,22.95
2023-08-25T10:41:15.335Z,21.81
2023-08-25T10:42:34.397Z,21.20
2023-08-25T10:43:38.739Z,21.69
2023-08-25T10:44:43.542Z,21.54
2023-08-25T10:45:52.068Z,20.05
2023-08-25T10:47:03.352Z,19.97
2023-08-25T10:48:05.529Z,21.15
2023-08-25T10:49:12.891Z,21.01
2023-08-25T10:50:20.858Z,19.94
2023-08-25T10:51:22.700Z,20.37
2023-08-25T10:52:24.989Z,20.62
2023-08-25T10:53:40.011Z,20.08
2023-08-25T10:54:43.106Z,21.29
2023-08-25T10:55:46.667Z,20.95
2023-08-25T10:56:48.456Z,22.67
2023-08-25T10:57:54.749Z,21.25
2023-08-25T10:58:56.713Z,20.32
2023-08-25T11:00:25.058Z,19.98
2023-08-25T11:01:29.246Z,20.83
2023-08-25T11:02:38.526Z,23.70
2023-08-25T11:04:05.274Z,21.52
2023-08-25T11:05:33.253Z,24.60
2023-08-25T11:06:40.918Z,21.00
2023-08-25T11:07:44.020Z,21.13
2023-08-25T11:08:46.717Z,22.25
2023-08-25T11:09:48.473Z,21.77
2023-08-25T11:11:11.495Z,21.26
2023-08-25T11:12:13.587Z,21.00
2023-08-25T11:13:17.060Z,21.56
2023-08-25T11:14:19.045Z,22.49
2023-08-25T11:15:23.201Z,20.92
2023-08-25T11:16:25.006Z,20.52
2023-08-25T11:17:27.196Z,21.75
2023-08-25T11:18:29.156Z,22.30
2023-08-25T11:19:33.542Z,21.36
2023-08-25T11:20:35.754Z,22.14
2023-08-25T11:21:37.762Z,22.20
2023-08-25T11:23:13.174Z,21.92
2023-08-25T11:24:24.782Z,23.78
2023-08-25T11:25:28.337Z,23.19
2023-08-25T11:26:31.803Z,23.29
2023-08-25T11:27:33.526Z,22.37
2023-08-25T11:28:37.677Z,22.32
2023-08-25T11:29:46.894Z,23.61
2023-08-25T11:30:49.083Z,23.45
2023-08-25T11:31:50.858Z,23.87
2023-08-25T11:32:53.290Z,21.99
2023-08-25T11:33:56.423Z,22.76
2023-08-25T11:34:58.259Z,22.42
2023-08-25T11:36:01.168Z,22.35
2023-08-25T11:37:03.355Z,23.47
2023-08-25T11:38:05.296Z,24.09
2023-08-25T11:39:07.040Z,24.85
2023-08-25T11:40:31.426Z,24.51
2023-08-25T11:41:33.699Z,25.77
2023-08-25T11:42:36.056Z,24.98
2023-08-25T11:43:38.331Z,24.21
2023-08-25T11:44:44.554Z,23.07
2023-08-25T11:45:47.315Z,23.41
2023-08-25T11:46:49.375Z,23.56
2023-08-25T11:47:51.230Z,23.54
2023-08-25T11:48:55.096Z,23.53
2023-08-25T11:49:58.250Z,23.84
2023-08-25T11:51:00.349Z,22.62
2023-08-25T11:52:02.399Z,22.62
2023-08-25T11:53:04.611Z,23.41
2023-08-25T11:54:07.344Z,22.94
2023-08-25T11:55:15.232Z,23.06
2023-08-25T11:56:18.140Z,22.50
2023-08-25T11:57:20.420Z,22.52
2023-08-25T11:58:29.185Z,22.06
2023-08-25T11:59:31.588Z,21.61
2023-08-25T12:00:39.607Z,22.21
2023-08-25T12:01:41.551Z,21.67
2023-08-25T12:02:43.340Z,23.91
2023-08-25T12:03:45.727Z,22.44
2023-08-25T12:05:00.435Z,20.81
2023-08-25T12:06:09.987Z,24.68
2023-08-25T12:07:11.722Z,22.78
2023-08-25T12:08:17.564Z,22.23
2023-08-25T12:09:22.210Z,21.67
2023-08-25T12:10:24.106Z,21.66
2023-08-25T12:11:25.957Z,22.25
2023-08-25T12:12:39.140Z,22.41
2023-08-25T12:13:47.913Z,21.11
2023-08-25T12:14:53.707Z,21.24
2023-08-25T12:15:55.441Z,22.74
2023-08-25T12:16:58.675Z,22.45
2023-08-25T12:18:00.852Z,22.01
2023-08-25T12:19:05.313Z,22.50
2023-08-25T12:20:18.108Z,23.53
2023-08-25T12:21:20.982Z,22.17
2023-08-25T12:22:24.583Z,22.35
2023-08-25T12:23:38.208Z,23.10
2023-08-25T12:24:40.002Z,21.97
2023-08-25T12:25:45.883Z,22.67
2023-08-25T12:26:47.979Z,22.63
2023-08-25T12:27:50.570Z,23.69
2023-08-25T12:28:52.290Z,23.32
2023-08-25T12:29:54.042Z,23.02
2023-08-25T12:30:55.812Z,24.58
2023-08-25T12:31:57.625Z,22.64
2023-08-25T12:32:59.648Z,23.23
2023-08-25T12:34:01.497Z,24.63
2023-08-25T12:35:03.327Z,23.86
2023-08-25T12:36:05.589Z,22.74
2023-08-25T12:37:07.306Z,22.72
2023-08-25T12:38:09.040Z,22.30
2023-08-25T12:39:11.771Z,23.05
2023-08-25T12:40:13.573Z,24.14
2023-08-25T12:41:15.310Z,23.23
2023-08-25T12:42:17.025Z,23.08
2023-08-25T12:43:18.910Z,23.68
2023-08-25T12:44:20.700Z,24.43
2023-08-25T12:45:23.903Z,24.86
2023-08-25T12:46:25.790Z,23.15
2023-08-25T12:47:27.806Z,23.44
2023-08-25T12:48:29.590Z,24.71
2023-08-25T12:49:31.409Z,23.77
2023-08-25T12:50:33.211Z,23.59
2023-08-25T12:51:39.085Z,24.20
2023-08-25T12:52:43.716Z,24.26
2023-08-25T12:53:45.596Z,23.32
2023-08-25T12:54:50.498Z,23.68
2023-08-25T12:55:53.566Z,24.61
2023-08-25T12:56:56.137Z,24.42
2023-08-25T12:58:00.831Z,23.16
2023-08-25T12:59:03.893Z,24.07
2023-08-25T13:00:06.523Z,24.20
2023-08-25T13:01:10.243Z,24.06
2023-08-25T13:02:12.005Z,24.26
2023-08-25T13:03:14.164Z,23.64
2023-08-25T13:04:16.055Z,23.03
2023-08-25T13:05:17.858Z,22.79
2023-08-25T13:06:19.631Z,22.40
2023-08-25T13:07:21.434Z,22.25
2023-08-25T13:08:23.165Z,24.01
2023-08-25T13:09:24.924Z,22.98
2023-08-25T13:10:28.177Z,23.60
2023-08-25T13:11:29.931Z,23.58
2023-08-25T13:12:32.440Z,23.58
2023-08-25T13:13:34.181Z,24.68
2023-08-25T13:14:35.903Z,23.87
2023-08-25T13:15:37.659Z,24.35
2023-08-25T13:16:39.526Z,23.96
2023-08-25T13:17:41.997Z,23.93
2023-08-25T13:18:43.881Z,23.67
2023-08-25T13:19:47.843Z,23.63
2023-08-25T13:20:50.517Z,23.11
2023-08-25T13:21:52.393Z,22.84
2023-08-25T13:22:54.191Z,22.88
2023-08-25T13:24:07.696Z,22.97
2023-08-25T13:25:10.720Z,22.77
2023-08-25T13:26:12.492Z,22.86
2023-08-25T13:27:14.290Z,22.89
2023-08-25T13:28:16.172Z,23.58
2023-08-25T13:29:18.107Z,23.82
2023-08-25T13:30:19.909Z,23.18
2023-08-25T13:31:21.669Z,23.32
2023-08-25T13:32:23.780Z,23.59
2023-08-25T13:33:25.696Z,23.50
2023-08-25T13:34:27.477Z,23.65